sensor_id;sensor_type;location;lat;lon;timestamp;P1;durP1;ratioP1;P2;durP2;ratioP2
57969;SDS011;43777;42.656;23.264;2022-07-15T00:00:44;1.88;;;1.77;;
57969;SDS011;43777;42.656;23.264;2022-07-15T00:03:10;3.60;;;2.03;;
57969;SDS011;43777;42.656;23.264;2022-07-15T00:05:36;2.70;;;2.03;;
57969;SDS011;43777;42.656;23.264;2022-07-15T00:08:02;4.35;;;2.20;;
57969;SDS011;43777;42.656;23.264;2022-07-15T00:10:28;2.40;;;2.20;;
57969;SDS011;43777;42.656;23.264;2022-07-15T00:12:56;2.33;;;2.10;;
57969;SDS011;43777;42.656;23.264;2022-07-15T00:15:23;4.47;;;1.88;;
57969;SDS011;43777;42.656;23.264;2022-07-15T00:17:50;2.40;;;1.85;;
57969;SDS011;43777;42.656;23.264;2022-07-15T00:20:16;3.63;;;2.10;;
57969;SDS011;43777;42.656;23.264;2022-07-15T00:22:43;2.97;;;2.10;;
57969;SDS011;43777;42.656;23.264;2022-07-15T00:25:09;3.05;;;2.03;;
57969;SDS011;43777;42.656;23.264;2022-07-15T00:27:36;2.90;;;1.80;;
57969;SDS011;43777;42.656;23.264;2022-07-15T00:30:15;2.58;;;1.80;;
57969;SDS011;43777;42.656;23.264;2022-07-15T00:32:41;4.68;;;1.92;;
57969;SDS011;43777;42.656;23.264;2022-07-15T00:35:07;5.85;;;2.42;;
57969;SDS011;43777;42.656;23.264;2022-07-15T00:37:33;6.35;;;2.10;;
57969;SDS011;43777;42.656;23.264;2022-07-15T00:40:00;3.92;;;2.13;;
57969;SDS011;43777;42.656;23.264;2022-07-15T00:42:26;3.55;;;2.10;;
57969;SDS011;43777;42.656;23.264;2022-07-15T00:45:11;6.75;;;2.25;;
57969;SDS011;43777;42.656;23.264;2022-07-15T00:47:39;4.40;;;2.10;;
57969;SDS011;43777;42.656;23.264;2022-07-15T00:50:05;3.33;;;2.05;;
57969;SDS011;43777;42.656;23.264;2022-07-15T00:52:31;3.83;;;2.17;;
57969;SDS011;43777;42.656;23.264;2022-07-15T00:54:59;2.10;;;1.90;;
57969;SDS011;43777;42.656;23.264;2022-07-15T00:57:26;3.83;;;2.20;;
57969;SDS011;43777;42.656;23.264;2022-07-15T00:59:53;3.60;;;2.20;;
57969;SDS011;43777;42.656;23.264;2022-07-15T01:02:19;3.63;;;2.20;;
57969;SDS011;43777;42.656;23.264;2022-07-15T01:04:46;5.68;;;2.15;;
57969;SDS011;43777;42.656;23.264;2022-07-15T01:07:13;3.15;;;2.13;;
57969;SDS011;43777;42.656;23.264;2022-07-15T01:09:39;5.25;;;2.33;;
57969;SDS011;43777;42.656;23.264;2022-07-15T01:12:05;3.28;;;2.28;;
57969;SDS011;43777;42.656;23.264;2022-07-15T01:14:31;3.35;;;2.17;;
57969;SDS011;43777;42.656;23.264;2022-07-15T01:16:57;5.00;;;2.20;;
57969;SDS011;43777;42.656;23.264;2022-07-15T01:19:23;2.10;;;1.90;;
57969;SDS011;43777;42.656;23.264;2022-07-15T01:21:49;3.63;;;2.20;;
57969;SDS011;43777;42.656;23.264;2022-07-15T01:24:15;4.82;;;2.38;;
57969;SDS011;43777;42.656;23.264;2022-07-15T01:26:41;3.50;;;2.05;;
57969;SDS011;43777;42.656;23.264;2022-07-15T01:29:07;2.58;;;2.08;;
57969;SDS011;43777;42.656;23.264;2022-07-15T01:31:33;2.55;;;2.35;;
57969;SDS011;43777;42.656;23.264;2022-07-15T01:33:59;4.35;;;2.55;;
57969;SDS011;43777;42.656;23.264;2022-07-15T01:36:25;4.18;;;2.60;;
57969;SDS011;43777;42.656;23.264;2022-07-15T01:38:51;3.72;;;2.53;;
57969;SDS011;43777;42.656;23.264;2022-07-15T01:41:17;2.53;;;2.33;;
57969;SDS011;43777;42.656;23.264;2022-07-15T01:43:43;4.28;;;2.70;;
57969;SDS011;43777;42.656;23.264;2022-07-15T01:46:09;3.83;;;2.85;;
57969;SDS011;43777;42.656;23.264;2022-07-15T01:48:36;4.32;;;2.97;;
57969;SDS011;43777;42.656;23.264;2022-07-15T01:51:20;3.47;;;2.42;;
57969;SDS011;43777;42.656;23.264;2022-07-15T01:53:46;3.90;;;2.83;;
57969;SDS011;43777;42.656;23.264;2022-07-15T01:56:12;3.85;;;3.00;;
57969;SDS011;43777;42.656;23.264;2022-07-15T01:58:38;7.15;;;3.00;;
57969;SDS011;43777;42.656;23.264;2022-07-15T02:01:04;6.75;;;3.30;;
57969;SDS011;43777;42.656;23.264;2022-07-15T02:03:32;4.20;;;2.92;;
57969;SDS011;43777;42.656;23.264;2022-07-15T02:05:59;4.55;;;2.67;;
57969;SDS011;43777;42.656;23.264;2022-07-15T02:08:25;6.65;;;2.88;;
57969;SDS011;43777;42.656;23.264;2022-07-15T02:10:51;4.07;;;3.35;;
57969;SDS011;43777;42.656;23.264;2022-07-15T02:13:17;4.07;;;3.10;;
57969;SDS011;43777;42.656;23.264;2022-07-15T02:15:43;3.97;;;3.05;;
57969;SDS011;43777;42.656;23.264;2022-07-15T02:18:09;4.25;;;3.00;;
57969;SDS011;43777;42.656;23.264;2022-07-15T02:20:35;3.92;;;2.83;;
57969;SDS011;43777;42.656;23.264;2022-07-15T02:23:02;5.13;;;3.70;;
57969;SDS011;43777;42.656;23.264;2022-07-15T02:25:30;5.53;;;3.83;;
57969;SDS011;43777;42.656;23.264;2022-07-15T02:27:57;5.65;;;3.30;;
57969;SDS011;43777;42.656;23.264;2022-07-15T02:30:25;6.40;;;3.58;;
57969;SDS011;43777;42.656;23.264;2022-07-15T02:32:52;4.65;;;3.50;;
57969;SDS011;43777;42.656;23.264;2022-07-15T02:35:18;6.95;;;3.63;;
57969;SDS011;43777;42.656;23.264;2022-07-15T02:37:44;5.30;;;3.88;;
57969;SDS011;43777;42.656;23.264;2022-07-15T02:40:11;5.13;;;3.90;;
57969;SDS011;43777;42.656;23.264;2022-07-15T02:42:37;8.82;;;3.95;;
57969;SDS011;43777;42.656;23.264;2022-07-15T02:45:03;4.43;;;3.35;;
57969;SDS011;43777;42.656;23.264;2022-07-15T02:47:30;4.25;;;3.40;;
57969;SDS011;43777;42.656;23.264;2022-07-15T02:49:56;6.13;;;3.30;;
57969;SDS011;43777;42.656;23.264;2022-07-15T02:52:23;4.40;;;3.38;;
57969;SDS011;43777;42.656;23.264;2022-07-15T02:54:49;6.88;;;3.13;;
57969;SDS011;43777;42.656;23.264;2022-07-15T02:57:15;5.00;;;3.55;;
57969;SDS011;43777;42.656;23.264;2022-07-15T02:59:41;3.80;;;2.70;;
57969;SDS011;43777;42.656;23.264;2022-07-15T03:02:07;3.20;;;2.90;;
57969;SDS011;43777;42.656;23.264;2022-07-15T03:04:33;5.63;;;3.55;;
57969;SDS011;43777;42.656;23.264;2022-07-15T03:06:59;10.40;;;3.20;;
57969;SDS011;43777;42.656;23.264;2022-07-15T03:09:25;7.05;;;3.47;;
57969;SDS011;43777;42.656;23.264;2022-07-15T03:11:52;3.75;;;3.10;;
57969;SDS011;43777;42.656;23.264;2022-07-15T03:14:18;3.97;;;3.00;;
57969;SDS011;43777;42.656;23.264;2022-07-15T03:16:44;4.85;;;3.20;;
57969;SDS011;43777;42.656;23.264;2022-07-15T03:19:11;5.18;;;3.30;;
57969;SDS011;43777;42.656;23.264;2022-07-15T03:21:37;7.82;;;3.30;;
57969;SDS011;43777;42.656;23.264;2022-07-15T03:24:03;6.00;;;3.78;;
57969;SDS011;43777;42.656;23.264;2022-07-15T03:26:30;4.53;;;2.90;;
57969;SDS011;43777;42.656;23.264;2022-07-15T03:28:56;5.00;;;2.85;;
57969;SDS011;43777;42.656;23.264;2022-07-15T03:31:24;4.95;;;2.72;;
57969;SDS011;43777;42.656;23.264;2022-07-15T03:33:50;8.63;;;2.90;;
57969;SDS011;43777;42.656;23.264;2022-07-15T03:36:16;5.95;;;3.05;;
57969;SDS011;43777;42.656;23.264;2022-07-15T03:38:42;8.98;;;2.92;;
57969;SDS011;43777;42.656;23.264;2022-07-15T03:41:08;4.43;;;2.78;;
57969;SDS011;43777;42.656;23.264;2022-07-15T03:43:34;7.15;;;3.08;;
57969;SDS011;43777;42.656;23.264;2022-07-15T03:46:00;5.70;;;2.92;;
57969;SDS011;43777;42.656;23.264;2022-07-15T03:48:26;6.18;;;2.80;;
57969;SDS011;43777;42.656;23.264;2022-07-15T03:50:52;6.53;;;3.45;;
57969;SDS011;43777;42.656;23.264;2022-07-15T03:53:19;18.88;;;3.85;;
57969;SDS011;43777;42.656;23.264;2022-07-15T03:55:45;9.40;;;5.90;;
57969;SDS011;43777;42.656;23.264;2022-07-15T03:58:11;5.80;;;2.97;;
57969;SDS011;43777;42.656;23.264;2022-07-15T04:00:37;5.72;;;3.35;;
57969;SDS011;43777;42.656;23.264;2022-07-15T04:03:03;11.02;;;3.50;;
57969;SDS011;43777;42.656;23.264;2022-07-15T04:05:29;7.10;;;3.35;;
57969;SDS011;43777;42.656;23.264;2022-07-15T04:07:55;11.93;;;3.90;;
57969;SDS011;43777;42.656;23.264;2022-07-15T04:10:21;7.22;;;3.90;;
57969;SDS011;43777;42.656;23.264;2022-07-15T04:12:47;12.60;;;5.38;;
57969;SDS011;43777;42.656;23.264;2022-07-15T04:15:13;12.35;;;4.65;;
57969;SDS011;43777;42.656;23.264;2022-07-15T04:17:39;10.57;;;5.05;;
57969;SDS011;43777;42.656;23.264;2022-07-15T04:20:07;23.58;;;5.57;;
57969;SDS011;43777;42.656;23.264;2022-07-15T04:22:39;14.75;;;5.10;;
57969;SDS011;43777;42.656;23.264;2022-07-15T04:25:06;10.85;;;4.53;;
57969;SDS011;43777;42.656;23.264;2022-07-15T04:27:33;11.18;;;4.20;;
57969;SDS011;43777;42.656;23.264;2022-07-15T04:29:59;7.18;;;3.78;;
57969;SDS011;43777;42.656;23.264;2022-07-15T04:32:25;11.02;;;4.30;;
57969;SDS011;43777;42.656;23.264;2022-07-15T04:34:52;16.08;;;4.65;;
57969;SDS011;43777;42.656;23.264;2022-07-15T04:37:18;16.48;;;4.97;;
57969;SDS011;43777;42.656;23.264;2022-07-15T04:39:46;19.90;;;5.90;;
57969;SDS011;43777;42.656;23.264;2022-07-15T04:42:13;8.00;;;4.68;;
57969;SDS011;43777;42.656;23.264;2022-07-15T04:44:39;7.25;;;5.30;;
57969;SDS011;43777;42.656;23.264;2022-07-15T04:47:05;11.32;;;5.05;;
57969;SDS011;43777;42.656;23.264;2022-07-15T04:49:31;14.70;;;5.20;;
57969;SDS011;43777;42.656;23.264;2022-07-15T04:52:15;13.23;;;5.45;;
57969;SDS011;43777;42.656;23.264;2022-07-15T04:54:42;17.77;;;5.88;;
57969;SDS011;43777;42.656;23.264;2022-07-15T04:57:08;17.25;;;5.97;;
57969;SDS011;43777;42.656;23.264;2022-07-15T04:59:34;13.55;;;5.70;;
57969;SDS011;43777;42.656;23.264;2022-07-15T05:02:00;15.30;;;5.15;;
57969;SDS011;43777;42.656;23.264;2022-07-15T05:04:27;8.30;;;5.25;;
57969;SDS011;43777;42.656;23.264;2022-07-15T05:06:53;8.65;;;5.78;;
57969;SDS011;43777;42.656;23.264;2022-07-15T05:09:19;15.10;;;6.00;;
57969;SDS011;43777;42.656;23.264;2022-07-15T05:11:45;9.85;;;6.65;;
57969;SDS011;43777;42.656;23.264;2022-07-15T05:14:11;33.85;;;7.85;;
57969;SDS011;43777;42.656;23.264;2022-07-15T05:16:37;19.10;;;7.38;;
57969;SDS011;43777;42.656;23.264;2022-07-15T05:19:03;15.02;;;6.85;;
57969;SDS011;43777;42.656;23.264;2022-07-15T05:21:29;12.38;;;6.35;;
57969;SDS011;43777;42.656;23.264;2022-07-15T05:23:55;17.70;;;6.55;;
57969;SDS011;43777;42.656;23.264;2022-07-15T05:26:21;10.80;;;5.82;;
57969;SDS011;43777;42.656;23.264;2022-07-15T05:28:48;15.60;;;6.45;;
57969;SDS011;43777;42.656;23.264;2022-07-15T05:31:14;8.93;;;5.30;;
57969;SDS011;43777;42.656;23.264;2022-07-15T05:33:40;8.77;;;5.03;;
57969;SDS011;43777;42.656;23.264;2022-07-15T05:36:10;11.40;;;5.18;;
57969;SDS011;43777;42.656;23.264;2022-07-15T05:38:36;39.47;;;8.88;;
57969;SDS011;43777;42.656;23.264;2022-07-15T05:41:03;13.43;;;5.40;;
57969;SDS011;43777;42.656;23.264;2022-07-15T05:43:29;12.73;;;5.35;;
57969;SDS011;43777;42.656;23.264;2022-07-15T05:45:55;12.25;;;5.78;;
57969;SDS011;43777;42.656;23.264;2022-07-15T05:48:21;10.55;;;5.30;;
57969;SDS011;43777;42.656;23.264;2022-07-15T05:50:48;8.00;;;5.10;;
57969;SDS011;43777;42.656;23.264;2022-07-15T05:53:14;16.85;;;5.88;;
57969;SDS011;43777;42.656;23.264;2022-07-15T05:55:40;9.55;;;5.95;;
57969;SDS011;43777;42.656;23.264;2022-07-15T05:58:07;23.33;;;6.55;;
57969;SDS011;43777;42.656;23.264;2022-07-15T06:00:33;11.80;;;6.18;;
57969;SDS011;43777;42.656;23.264;2022-07-15T06:03:00;11.90;;;5.60;;
57969;SDS011;43777;42.656;23.264;2022-07-15T06:05:27;6.57;;;4.90;;
57969;SDS011;43777;42.656;23.264;2022-07-15T06:07:53;7.90;;;4.82;;
57969;SDS011;43777;42.656;23.264;2022-07-15T06:10:20;8.77;;;4.18;;
57969;SDS011;43777;42.656;23.264;2022-07-15T06:12:46;7.03;;;4.50;;
57969;SDS011;43777;42.656;23.264;2022-07-15T06:15:12;10.57;;;4.82;;
57969;SDS011;43777;42.656;23.264;2022-07-15T06:17:38;12.70;;;4.75;;
57969;SDS011;43777;42.656;23.264;2022-07-15T06:20:05;6.22;;;3.90;;
57969;SDS011;43777;42.656;23.264;2022-07-15T06:22:31;14.30;;;5.05;;
57969;SDS011;43777;42.656;23.264;2022-07-15T06:24:57;15.05;;;5.72;;
57969;SDS011;43777;42.656;23.264;2022-07-15T06:27:24;31.67;;;6.88;;
57969;SDS011;43777;42.656;23.264;2022-07-15T06:29:50;9.35;;;5.05;;
57969;SDS011;43777;42.656;23.264;2022-07-15T06:32:17;16.42;;;5.60;;
57969;SDS011;43777;42.656;23.264;2022-07-15T06:34:43;19.80;;;6.20;;
57969;SDS011;43777;42.656;23.264;2022-07-15T06:37:10;21.38;;;6.07;;
57969;SDS011;43777;42.656;23.264;2022-07-15T06:39:36;22.13;;;6.03;;
57969;SDS011;43777;42.656;23.264;2022-07-15T06:42:02;171.13;;;21.60;;
57969;SDS011;43777;42.656;23.264;2022-07-15T06:44:28;25.13;;;7.00;;
57969;SDS011;43777;42.656;23.264;2022-07-15T06:46:55;29.27;;;6.10;;
57969;SDS011;43777;42.656;23.264;2022-07-15T06:49:21;18.92;;;5.80;;
57969;SDS011;43777;42.656;23.264;2022-07-15T06:51:47;17.08;;;5.65;;
57969;SDS011;43777;42.656;23.264;2022-07-15T06:54:13;9.35;;;5.18;;
57969;SDS011;43777;42.656;23.264;2022-07-15T06:56:39;8.10;;;4.97;;
57969;SDS011;43777;42.656;23.264;2022-07-15T06:59:06;15.18;;;5.50;;
57969;SDS011;43777;42.656;23.264;2022-07-15T07:01:32;16.23;;;5.70;;
57969;SDS011;43777;42.656;23.264;2022-07-15T07:03:58;70.35;;;9.93;;
57969;SDS011;43777;42.656;23.264;2022-07-15T07:06:24;22.40;;;6.18;;
57969;SDS011;43777;42.656;23.264;2022-07-15T07:08:51;5.82;;;4.50;;
57969;SDS011;43777;42.656;23.264;2022-07-15T07:11:17;9.60;;;4.43;;
57969;SDS011;43777;42.656;23.264;2022-07-15T07:13:43;20.25;;;5.15;;
57969;SDS011;43777;42.656;23.264;2022-07-15T07:16:09;6.80;;;4.10;;
57969;SDS011;43777;42.656;23.264;2022-07-15T07:18:35;8.65;;;4.43;;
57969;SDS011;43777;42.656;23.264;2022-07-15T07:21:01;7.13;;;4.55;;
57969;SDS011;43777;42.656;23.264;2022-07-15T07:23:27;9.77;;;4.60;;
57969;SDS011;43777;42.656;23.264;2022-07-15T07:25:55;8.73;;;4.18;;
57969;SDS011;43777;42.656;23.264;2022-07-15T07:28:21;5.53;;;4.68;;
57969;SDS011;43777;42.656;23.264;2022-07-15T07:30:47;4.90;;;4.38;;
57969;SDS011;43777;42.656;23.264;2022-07-15T07:33:15;7.53;;;5.00;;
57969;SDS011;43777;42.656;23.264;2022-07-15T07:35:41;7.75;;;4.38;;
57969;SDS011;43777;42.656;23.264;2022-07-15T07:38:08;11.07;;;4.78;;
57969;SDS011;43777;42.656;23.264;2022-07-15T07:40:34;9.27;;;4.20;;
57969;SDS011;43777;42.656;23.264;2022-07-15T07:43:01;14.75;;;5.05;;
57969;SDS011;43777;42.656;23.264;2022-07-15T07:45:27;6.25;;;4.20;;
57969;SDS011;43777;42.656;23.264;2022-07-15T07:47:55;9.70;;;4.20;;
57969;SDS011;43777;42.656;23.264;2022-07-15T07:50:22;5.95;;;3.67;;
57969;SDS011;43777;42.656;23.264;2022-07-15T07:52:48;9.10;;;3.58;;
57969;SDS011;43777;42.656;23.264;2022-07-15T07:55:14;6.05;;;3.90;;
57969;SDS011;43777;42.656;23.264;2022-07-15T07:58:13;6.35;;;3.67;;
57969;SDS011;43777;42.656;23.264;2022-07-15T08:00:32;25.70;;;6.03;;
57969;SDS011;43777;42.656;23.264;2022-07-15T08:02:59;8.02;;;5.20;;
57969;SDS011;43777;42.656;23.264;2022-07-15T08:05:26;7.88;;;4.10;;
57969;SDS011;43777;42.656;23.264;2022-07-15T08:08:15;7.85;;;4.22;;
57969;SDS011;43777;42.656;23.264;2022-07-15T08:10:42;9.93;;;4.57;;
57969;SDS011;43777;42.656;23.264;2022-07-15T08:13:09;6.95;;;3.85;;
57969;SDS011;43777;42.656;23.264;2022-07-15T08:15:35;8.77;;;3.97;;
57969;SDS011;43777;42.656;23.264;2022-07-15T08:18:01;47.75;;;7.90;;
57969;SDS011;43777;42.656;23.264;2022-07-15T08:20:27;18.38;;;5.60;;
57969;SDS011;43777;42.656;23.264;2022-07-15T08:22:54;10.65;;;4.50;;
57969;SDS011;43777;42.656;23.264;2022-07-15T08:25:24;20.60;;;5.05;;
57969;SDS011;43777;42.656;23.264;2022-07-15T08:27:50;6.65;;;3.63;;
57969;SDS011;43777;42.656;23.264;2022-07-15T08:30:16;7.85;;;3.95;;
57969;SDS011;43777;42.656;23.264;2022-07-15T08:32:42;7.60;;;3.80;;
57969;SDS011;43777;42.656;23.264;2022-07-15T08:35:08;9.15;;;3.70;;
57969;SDS011;43777;42.656;23.264;2022-07-15T08:37:35;6.75;;;3.97;;
57969;SDS011;43777;42.656;23.264;2022-07-15T08:40:02;6.30;;;4.30;;
57969;SDS011;43777;42.656;23.264;2022-07-15T08:42:28;6.43;;;3.60;;
57969;SDS011;43777;42.656;23.264;2022-07-15T08:44:54;6.25;;;4.13;;
57969;SDS011;43777;42.656;23.264;2022-07-15T08:47:21;9.05;;;4.35;;
57969;SDS011;43777;42.656;23.264;2022-07-15T08:49:55;30.98;;;6.00;;
57969;SDS011;43777;42.656;23.264;2022-07-15T08:52:22;6.80;;;5.22;;
57969;SDS011;43777;42.656;23.264;2022-07-15T08:54:48;4.85;;;4.40;;
57969;SDS011;43777;42.656;23.264;2022-07-15T08:57:14;13.82;;;5.70;;
57969;SDS011;43777;42.656;23.264;2022-07-15T08:59:40;11.20;;;4.82;;
57969;SDS011;43777;42.656;23.264;2022-07-15T09:02:07;5.35;;;4.35;;
57969;SDS011;43777;42.656;23.264;2022-07-15T09:05:08;13.15;;;4.85;;
57969;SDS011;43777;42.656;23.264;2022-07-15T09:07:21;8.73;;;4.38;;
57969;SDS011;43777;42.656;23.264;2022-07-15T09:09:47;15.73;;;4.75;;
57969;SDS011;43777;42.656;23.264;2022-07-15T09:12:13;8.13;;;4.57;;
57969;SDS011;43777;42.656;23.264;2022-07-15T09:14:40;7.57;;;4.63;;
57969;SDS011;43777;42.656;23.264;2022-07-15T09:20:21;7.50;;;3.90;;
57969;SDS011;43777;42.656;23.264;2022-07-15T09:22:23;8.30;;;4.60;;
57969;SDS011;43777;42.656;23.264;2022-07-15T09:24:50;7.88;;;4.43;;
57969;SDS011;43777;42.656;23.264;2022-07-15T09:27:29;25.80;;;5.47;;
57969;SDS011;43777;42.656;23.264;2022-07-15T09:29:57;9.90;;;5.15;;
57969;SDS011;43777;42.656;23.264;2022-07-15T09:32:42;15.00;;;4.93;;
57969;SDS011;43777;42.656;23.264;2022-07-15T09:35:27;10.27;;;5.20;;
57969;SDS011;43777;42.656;23.264;2022-07-15T09:38:12;8.93;;;5.03;;
57969;SDS011;43777;42.656;23.264;2022-07-15T09:40:47;8.38;;;4.07;;
57969;SDS011;43777;42.656;23.264;2022-07-15T09:43:13;7.45;;;4.70;;
57969;SDS011;43777;42.656;23.264;2022-07-15T09:45:39;6.68;;;4.45;;
57969;SDS011;43777;42.656;23.264;2022-07-15T09:48:06;6.35;;;3.67;;
57969;SDS011;43777;42.656;23.264;2022-07-15T09:50:34;12.45;;;4.60;;
57969;SDS011;43777;42.656;23.264;2022-07-15T09:53:02;3.75;;;3.45;;
57969;SDS011;43777;42.656;23.264;2022-07-15T09:55:31;5.85;;;3.60;;
57969;SDS011;43777;42.656;23.264;2022-07-15T09:57:58;12.23;;;4.00;;
57969;SDS011;43777;42.656;23.264;2022-07-15T10:00:24;5.32;;;3.63;;
57969;SDS011;43777;42.656;23.264;2022-07-15T10:02:50;4.78;;;3.70;;
57969;SDS011;43777;42.656;23.264;2022-07-15T10:05:17;6.13;;;3.83;;
57969;SDS011;43777;42.656;23.264;2022-07-15T10:07:43;9.32;;;4.20;;
57969;SDS011;43777;42.656;23.264;2022-07-15T10:10:09;5.85;;;3.47;;
57969;SDS011;43777;42.656;23.264;2022-07-15T10:15:33;9.15;;;4.05;;
57969;SDS011;43777;42.656;23.264;2022-07-15T10:20:34;5.55;;;3.67;;
57969;SDS011;43777;42.656;23.264;2022-07-15T10:23:10;5.82;;;3.95;;
57969;SDS011;43777;42.656;23.264;2022-07-15T10:28:33;6.90;;;4.15;;
57969;SDS011;43777;42.656;23.264;2022-07-15T10:39:19;9.05;;;4.03;;
57969;SDS011;43777;42.656;23.264;2022-07-15T10:41:56;7.45;;;4.40;;
57969;SDS011;43777;42.656;23.264;2022-07-15T10:44:22;6.35;;;4.22;;
57969;SDS011;43777;42.656;23.264;2022-07-15T10:49:34;6.13;;;4.28;;
57969;SDS011;43777;42.656;23.264;2022-07-15T10:52:42;6.70;;;3.63;;
57969;SDS011;43777;42.656;23.264;2022-07-15T10:57:15;8.13;;;3.88;;
57969;SDS011;43777;42.656;23.264;2022-07-15T10:59:48;5.80;;;4.45;;
57969;SDS011;43777;42.656;23.264;2022-07-15T11:02:15;7.55;;;4.30;;
57969;SDS011;43777;42.656;23.264;2022-07-15T11:04:41;11.60;;;5.40;;
57969;SDS011;43777;42.656;23.264;2022-07-15T11:14:57;6.65;;;3.95;;
57969;SDS011;43777;42.656;23.264;2022-07-15T11:19:54;5.78;;;3.58;;
57969;SDS011;43777;42.656;23.264;2022-07-15T11:22:21;6.82;;;3.22;;
57969;SDS011;43777;42.656;23.264;2022-07-15T11:24:47;5.40;;;3.30;;
57969;SDS011;43777;42.656;23.264;2022-07-15T11:27:14;4.45;;;3.25;;
57969;SDS011;43777;42.656;23.264;2022-07-15T11:29:40;7.82;;;3.30;;
57969;SDS011;43777;42.656;23.264;2022-07-15T11:32:06;7.20;;;2.92;;
57969;SDS011;43777;42.656;23.264;2022-07-15T11:34:53;4.95;;;3.50;;
57969;SDS011;43777;42.656;23.264;2022-07-15T11:37:29;6.85;;;3.28;;
57969;SDS011;43777;42.656;23.264;2022-07-15T11:40:06;7.13;;;5.03;;
57969;SDS011;43777;42.656;23.264;2022-07-15T11:42:33;3.50;;;3.20;;
57969;SDS011;43777;42.656;23.264;2022-07-15T11:45:31;5.78;;;3.17;;
57969;SDS011;43777;42.656;23.264;2022-07-15T11:47:57;5.38;;;3.20;;
57969;SDS011;43777;42.656;23.264;2022-07-15T11:50:23;4.50;;;3.38;;
57969;SDS011;43777;42.656;23.264;2022-07-15T11:52:49;14.00;;;3.70;;
57969;SDS011;43777;42.656;23.264;2022-07-15T11:55:20;7.72;;;3.53;;
57969;SDS011;43777;42.656;23.264;2022-07-15T11:57:46;8.25;;;3.88;;
57969;SDS011;43777;42.656;23.264;2022-07-15T12:00:13;4.25;;;3.85;;
57969;SDS011;43777;42.656;23.264;2022-07-15T12:02:40;4.15;;;3.78;;
57969;SDS011;43777;42.656;23.264;2022-07-15T12:05:07;6.97;;;3.83;;
57969;SDS011;43777;42.656;23.264;2022-07-15T12:07:40;8.25;;;3.47;;
57969;SDS011;43777;42.656;23.264;2022-07-15T12:10:07;5.78;;;3.63;;
57969;SDS011;43777;42.656;23.264;2022-07-15T12:12:33;9.15;;;3.70;;
57969;SDS011;43777;42.656;23.264;2022-07-15T12:14:59;5.15;;;3.70;;
57969;SDS011;43777;42.656;23.264;2022-07-15T12:17:26;4.93;;;3.78;;
57969;SDS011;43777;42.656;23.264;2022-07-15T12:19:52;6.53;;;3.58;;
57969;SDS011;43777;42.656;23.264;2022-07-15T12:22:18;7.80;;;3.70;;
57969;SDS011;43777;42.656;23.264;2022-07-15T12:24:45;4.53;;;4.13;;
57969;SDS011;43777;42.656;23.264;2022-07-15T12:27:15;4.50;;;3.70;;
57969;SDS011;43777;42.656;23.264;2022-07-15T12:29:42;7.93;;;3.85;;
57969;SDS011;43777;42.656;23.264;2022-07-15T12:32:09;5.55;;;3.80;;
57969;SDS011;43777;42.656;23.264;2022-07-15T12:34:52;6.60;;;3.95;;
57969;SDS011;43777;42.656;23.264;2022-07-15T12:37:19;4.07;;;3.67;;
57969;SDS011;43777;42.656;23.264;2022-07-15T12:42:43;5.93;;;3.75;;
57969;SDS011;43777;42.656;23.264;2022-07-15T12:45:14;9.98;;;4.85;;
57969;SDS011;43777;42.656;23.264;2022-07-15T12:50:26;4.53;;;4.10;;
57969;SDS011;43777;42.656;23.264;2022-07-15T12:52:53;7.20;;;3.97;;
57969;SDS011;43777;42.656;23.264;2022-07-15T12:55:20;8.73;;;4.00;;
57969;SDS011;43777;42.656;23.264;2022-07-15T12:57:47;6.95;;;4.20;;
57969;SDS011;43777;42.656;23.264;2022-07-15T13:00:14;8.65;;;4.30;;
57969;SDS011;43777;42.656;23.264;2022-07-15T13:05:25;4.82;;;4.32;;
57969;SDS011;43777;42.656;23.264;2022-07-15T13:07:51;7.13;;;4.03;;
57969;SDS011;43777;42.656;23.264;2022-07-15T13:10:18;7.90;;;3.92;;
57969;SDS011;43777;42.656;23.264;2022-07-15T13:12:44;4.75;;;4.15;;
57969;SDS011;43777;42.656;23.264;2022-07-15T13:15:10;3.97;;;3.55;;
57969;SDS011;43777;42.656;23.264;2022-07-15T13:17:36;8.05;;;3.97;;
57969;SDS011;43777;42.656;23.264;2022-07-15T13:20:03;4.20;;;3.85;;
57969;SDS011;43777;42.656;23.264;2022-07-15T13:22:30;6.60;;;4.15;;
57969;SDS011;43777;42.656;23.264;2022-07-15T13:24:56;6.00;;;3.78;;
57969;SDS011;43777;42.656;23.264;2022-07-15T13:27:23;5.35;;;4.03;;
57969;SDS011;43777;42.656;23.264;2022-07-15T13:29:49;7.03;;;3.95;;
57969;SDS011;43777;42.656;23.264;2022-07-15T13:32:15;5.90;;;4.30;;
57969;SDS011;43777;42.656;23.264;2022-07-15T13:34:41;9.43;;;4.40;;
57969;SDS011;43777;42.656;23.264;2022-07-15T13:37:07;9.45;;;4.53;;
57969;SDS011;43777;42.656;23.264;2022-07-15T13:39:33;7.00;;;4.00;;
57969;SDS011;43777;42.656;23.264;2022-07-15T13:42:00;14.25;;;4.82;;
57969;SDS011;43777;42.656;23.264;2022-07-15T13:44:26;6.43;;;4.30;;
57969;SDS011;43777;42.656;23.264;2022-07-15T13:46:52;7.00;;;4.75;;
57969;SDS011;43777;42.656;23.264;2022-07-15T13:49:18;8.73;;;4.40;;
57969;SDS011;43777;42.656;23.264;2022-07-15T13:52:04;4.53;;;4.13;;
57969;SDS011;43777;42.656;23.264;2022-07-15T13:54:30;4.43;;;4.00;;
57969;SDS011;43777;42.656;23.264;2022-07-15T13:56:57;5.45;;;4.72;;
57969;SDS011;43777;42.656;23.264;2022-07-15T13:59:23;8.25;;;3.97;;
57969;SDS011;43777;42.656;23.264;2022-07-15T14:01:49;6.32;;;4.05;;
57969;SDS011;43777;42.656;23.264;2022-07-15T14:04:16;6.05;;;4.53;;
57969;SDS011;43777;42.656;23.264;2022-07-15T14:06:42;5.65;;;4.40;;
57969;SDS011;43777;42.656;23.264;2022-07-15T14:09:08;10.90;;;4.28;;
57969;SDS011;43777;42.656;23.264;2022-07-15T14:11:34;7.68;;;4.95;;
57969;SDS011;43777;42.656;23.264;2022-07-15T14:14:00;6.32;;;4.70;;
57969;SDS011;43777;42.656;23.264;2022-07-15T14:16:27;7.78;;;4.28;;
57969;SDS011;43777;42.656;23.264;2022-07-15T14:18:53;6.30;;;4.15;;
57969;SDS011;43777;42.656;23.264;2022-07-15T14:21:19;5.05;;;4.45;;
57969;SDS011;43777;42.656;23.264;2022-07-15T14:23:46;5.68;;;4.75;;
57969;SDS011;43777;42.656;23.264;2022-07-15T14:26:13;8.38;;;4.60;;
57969;SDS011;43777;42.656;23.264;2022-07-15T14:28:39;6.75;;;4.38;;
57969;SDS011;43777;42.656;23.264;2022-07-15T14:31:06;4.45;;;4.00;;
57969;SDS011;43777;42.656;23.264;2022-07-15T14:33:32;7.38;;;4.47;;
57969;SDS011;43777;42.656;23.264;2022-07-15T14:35:59;8.27;;;4.40;;
57969;SDS011;43777;42.656;23.264;2022-07-15T14:38:25;4.60;;;4.10;;
57969;SDS011;43777;42.656;23.264;2022-07-15T14:40:51;5.10;;;4.60;;
57969;SDS011;43777;42.656;23.264;2022-07-15T14:43:17;5.93;;;4.65;;
57969;SDS011;43777;42.656;23.264;2022-07-15T14:45:44;5.15;;;4.72;;
57969;SDS011;43777;42.656;23.264;2022-07-15T14:48:10;5.47;;;4.10;;
57969;SDS011;43777;42.656;23.264;2022-07-15T14:50:36;5.18;;;4.68;;
57969;SDS011;43777;42.656;23.264;2022-07-15T14:53:02;6.10;;;4.10;;
57969;SDS011;43777;42.656;23.264;2022-07-15T14:55:28;4.63;;;4.18;;
57969;SDS011;43777;42.656;23.264;2022-07-15T14:57:55;5.28;;;4.78;;
57969;SDS011;43777;42.656;23.264;2022-07-15T15:00:21;8.20;;;4.75;;
57969;SDS011;43777;42.656;23.264;2022-07-15T15:02:47;7.85;;;4.43;;
57969;SDS011;43777;42.656;23.264;2022-07-15T15:05:14;6.95;;;4.95;;
57969;SDS011;43777;42.656;23.264;2022-07-15T15:07:40;5.43;;;4.57;;
57969;SDS011;43777;42.656;23.264;2022-07-15T15:10:06;5.25;;;4.78;;
57969;SDS011;43777;42.656;23.264;2022-07-15T15:12:32;5.10;;;4.60;;
57969;SDS011;43777;42.656;23.264;2022-07-15T15:14:58;19.55;;;5.35;;